Terminal Aerodrome Forecast
Issued by NWS

Current Version | Previous Version | Graphics & Text | Print | Product List | Glossary On
Versions: 1 2 3 4 5 6 7 8 9 10 11 12 13 14 15 16 17 18 19 20 21 22 23 24
000
FTUS41 KPBZ 250600 AAA
TAFMGW
TAF AMD
KMGW 250628Z 2506/2606 VRB03KT P6SM BKN040
     FM251700 22012G20KT P6SM SCT040
     FM252300 25012G20KT P6SM BKN025
     FM260400 28012KT P6SM SKC=

USA.gov is the U.S. government's official web portal to all federal, state and local government web resources and services.